Time;durP1;ratioP1;P1;durP2;ratioP2;P2;SDS_P1;SDS_P2;PMS_P1;PMS_P2;Temp;Humidity;BMP_temperature;BMP_pressure;BME280_temperature;BME280_humidity;BME280_pressure;Samples;Min_cycle;Max_cycle;Signal;HPM_P1;HPM_P2
2023/07/13 00:01:38;;;;;;;15.45;14.30;;;;;;;24.56;100.00;-18403.63;5073227;28;20193;-57
2023/07/13 00:04:05;;;;;;;15.77;14.82;;;;;;;24.61;100.00;-18404.81;5073306;28;20616;-57
2023/07/13 00:06:35;;;;;;;15.52;13.95;;;;;;;24.58;100.00;-18404.09;5072046;28;20185;-57
2023/07/13 00:09:02;;;;;;;15.80;14.43;;;;;;;24.54;100.00;-18403.13;5072672;28;20642;-57
2023/07/13 00:11:29;;;;;;;15.48;14.50;;;;;;;24.53;100.00;-18402.91;5072331;28;20185;-57
2023/07/13 00:13:56;;;;;;;16.63;15.32;;;;;;;24.60;100.00;-18404.56;5072299;28;20184;-57
2023/07/13 00:16:23;;;;;;;17.83;16.02;;;;;;;24.44;100.00;-18400.78;5072539;28;20555;-56
2023/07/13 00:18:50;;;;;;;15.23;14.43;;;;;;;24.52;100.00;-18402.66;5072629;28;20188;-57
2023/07/13 00:21:17;;;;;;;16.77;15.63;;;;;;;24.52;100.00;-18402.66;5072037;28;20191;-56
2023/07/13 00:23:45;;;;;;;16.90;15.27;;;;;;;24.44;100.00;-18400.78;5072793;28;20203;-57
2023/07/13 00:26:13;;;;;;;16.48;15.38;;;;;;;24.27;100.00;-18396.75;5072018;28;20181;-56
2023/07/13 00:28:41;;;;;;;16.17;14.93;;;;;;;24.49;100.00;-18402.06;5072261;28;20185;-57
2023/07/13 00:31:09;;;;;;;17.27;15.40;;;;;;;24.44;100.00;-18400.88;5072093;28;20625;-56
2023/07/13 00:33:39;;;;;;;16.63;15.70;;;;;;;24.44;100.00;-18400.78;5072082;28;20188;-56
2023/07/13 00:36:06;;;;;;;17.10;15.40;;;;;;;24.44;100.00;-18400.78;5071743;28;20185;-56
2023/07/13 00:38:33;;;;;;;16.83;15.70;;;;;;;24.48;100.00;-18401.72;5072155;28;20567;-56
2023/07/13 00:41:03;;;;;;;16.85;15.27;;;;;;;24.30;100.00;-18397.47;5071750;28;20185;-57
2023/07/13 00:43:30;;;;;;;16.92;15.73;;;;;;;24.51;100.00;-18402.44;5071907;28;20616;-57
2023/07/13 00:46:20;;;;;;;16.23;15.43;;;;;;;24.50;100.00;-18402.31;5071669;28;20602;-57
2023/07/13 00:48:49;;;;;;;16.92;15.93;;;;;;;24.46;100.00;-18401.25;5071559;28;20191;-57
2023/07/13 00:51:21;;;;;;;16.90;15.65;;;;;;;24.47;100.00;-18401.47;5072121;28;20216;-57
2023/07/13 00:53:49;;;;;;;16.55;15.13;;;;;;;24.55;100.00;-18403.50;5071551;28;20187;-56
2023/07/13 00:56:17;;;;;;;17.88;16.13;;;;;;;24.38;100.00;-18399.34;5071792;28;20564;-57
2023/07/13 00:58:45;;;;;;;16.58;15.30;;;;;;;24.46;100.00;-18401.38;5071752;28;20532;-56
2023/07/13 01:01:12;;;;;;;17.20;15.85;;;;;;;24.49;100.00;-18401.97;5071481;28;20276;-56
2023/07/13 01:03:40;;;;;;;16.02;14.98;;;;;;;24.43;100.00;-18400.66;5071514;28;20180;-57
2023/07/13 01:06:07;;;;;;;16.58;15.65;;;;;;;24.49;100.00;-18402.06;5071763;28;20185;-57
2023/07/13 01:08:34;;;;;;;17.70;16.30;;;;;;;24.40;100.00;-18399.94;5071543;28;20197;-57
2023/07/13 01:11:01;;;;;;;16.90;15.65;;;;;;;24.52;100.00;-18402.78;5071808;28;20571;-56
2023/07/13 01:13:29;;;;;;;17.20;15.95;;;;;;;24.52;100.00;-18402.66;5071730;28;20188;-58
2023/07/13 01:16:13;;;;;;;16.77;15.32;;;;;;;24.47;100.00;-18401.47;5071057;28;20180;-56
2023/07/13 01:18:39;;;;;;;16.55;15.45;;;;;;;24.46;100.00;-18401.25;5071403;28;20606;-57
2023/07/13 01:21:08;;;;;;;16.58;15.25;;;;;;;24.41;100.00;-18400.19;5071541;28;20208;-57
2023/07/13 01:23:34;;;;;;;17.95;16.70;;;;;;;24.21;100.00;-18395.31;5071232;28;20262;-56
2023/07/13 01:26:01;;;;;;;17.08;16.02;;;;;;;24.38;100.00;-18399.47;5071549;28;20627;-56
2023/07/13 01:28:29;;;;;;;18.13;16.38;;;;;;;24.27;100.00;-18396.75;5071150;28;20188;-57
2023/07/13 01:30:58;;;;;;;17.73;16.30;;;;;;;24.30;100.00;-18397.47;5071039;28;20205;-57
2023/07/13 01:33:26;;;;;;;18.15;16.70;;;;;;;24.18;100.00;-18394.72;5071183;28;20189;-56
2023/07/13 01:35:53;;;;;;;18.70;16.88;;;;;;;24.32;100.00;-18397.94;5071232;28;20188;-57
2023/07/13 01:38:23;;;;;;;18.20;16.90;;;;;;;24.19;100.00;-18394.84;5071122;28;20189;-57
2023/07/13 01:40:51;;;;;;;17.83;16.52;;;;;;;24.33;100.00;-18398.28;5071022;28;20242;-57
2023/07/13 01:43:18;;;;;;;17.48;16.10;;;;;;;24.40;100.00;-18399.81;5071240;28;20185;-57
2023/07/13 01:45:45;;;;;;;17.92;16.35;;;;;;;24.31;100.00;-18397.81;5071211;28;20257;-56
2023/07/13 01:48:12;;;;;;;18.35;16.75;;;;;;;24.32;100.00;-18397.94;5071394;28;20558;-58
2023/07/13 01:50:39;;;;;;;17.23;16.10;;;;;;;24.35;100.00;-18398.66;5071236;28;20212;-56
2023/07/13 01:53:06;;;;;;;19.35;15.32;;;;;;;24.45;100.00;-18401.00;5070902;28;20189;-57
2023/07/13 01:55:35;;;;;;;17.48;15.73;;;;;;;24.40;100.00;-18399.94;5071291;28;20297;-57
2023/07/13 01:58:02;;;;;;;16.48;15.27;;;;;;;24.47;100.00;-18401.59;5070895;28;20185;-57
2023/07/13 02:00:29;;;;;;;15.60;14.10;;;;;;;24.34;100.00;-18398.41;5071213;28;20180;-56
2023/07/13 02:02:57;;;;;;;14.68;13.57;;;;;;;24.51;100.00;-18402.44;5070851;28;20185;-57
2023/07/13 02:05:24;;;;;;;16.50;15.18;;;;;;;24.39;100.00;-18399.59;5070904;28;20197;-56
2023/07/13 02:07:52;;;;;;;18.42;16.63;;;;;;;24.28;100.00;-18397.09;5071550;28;20185;-56
2023/07/13 02:10:19;;;;;;;17.17;15.77;;;;;;;24.28;100.00;-18396.97;5070734;28;20258;-57
2023/07/13 02:12:50;;;;;;;16.95;15.80;;;;;;;24.27;100.00;-18396.75;5070963;28;20196;-58
2023/07/13 02:15:17;;;;;;;16.52;14.95;;;;;;;24.13;100.00;-18393.66;5071453;28;20181;-57
2023/07/13 02:17:44;;;;;;;16.92;14.38;;;;;;;24.31;100.00;-18397.69;5071116;28;20196;-56
2023/07/13 02:20:12;;;;;;;16.83;14.52;;;;;;;24.37;100.00;-18399.22;5071089;28;20198;-58
2023/07/13 02:22:40;;;;;;;18.67;15.30;;;;;;;24.42;100.00;-18400.31;5071185;28;20598;-57
2023/07/13 02:25:08;;;;;;;15.57;14.23;;;;;;;24.42;100.00;-18400.31;5070673;28;20279;-57
2023/07/13 02:27:35;;;;;;;16.58;15.15;;;;;;;24.32;100.00;-18397.94;5070993;28;20671;-56
2023/07/13 02:30:03;;;;;;;15.75;14.55;;;;;;;24.28;100.00;-18397.09;5074186;28;20192;-57
2023/07/13 02:32:30;;;;;;;15.73;14.43;;;;;;;24.34;100.00;-18398.53;5074506;28;20700;-57
2023/07/13 02:34:57;;;;;;;14.93;13.73;;;;;;;24.31;100.00;-18397.69;5074517;28;20187;-57
2023/07/13 02:37:24;;;;;;;16.15;14.98;;;;;;;24.30;100.00;-18397.47;5074006;28;20184;-57
2023/07/13 02:39:51;;;;;;;15.40;13.98;;;;;;;24.26;100.00;-18396.63;5074214;28;20189;-57
2023/07/13 02:42:18;;;;;;;17.85;14.65;;;;;;;24.36;100.00;-18399.00;5074318;28;20551;-56
2023/07/13 02:44:45;;;;;;;17.45;14.88;;;;;;;24.34;100.00;-18398.41;5074038;28;20232;-58
2023/07/13 02:47:14;;;;;;;22.65;15.70;;;;;;;24.32;100.00;-18397.94;5073935;28;20181;-58
2023/07/13 02:49:40;;;;;;;16.33;14.88;;;;;;;24.37;100.00;-18399.13;5074180;28;20661;-57
2023/07/13 02:52:07;;;;;;;15.75;14.18;;;;;;;24.34;100.00;-18398.53;5074108;28;20211;-57
2023/07/13 02:54:34;;;;;;;15.38;14.07;;;;;;;24.25;100.00;-18396.28;5073835;28;20185;-57
2023/07/13 02:57:01;;;;;;;16.65;14.70;;;;;;;24.23;100.00;-18395.81;5074244;28;20191;-57
2023/07/13 02:59:28;;;;;;;15.40;14.05;;;;;;;24.26;100.00;-18396.63;5073650;28;20189;-56
2023/07/13 03:01:55;;;;;;;17.88;15.60;;;;;;;24.14;100.00;-18393.78;5073891;28;20177;-57
2023/07/13 03:04:23;;;;;;;19.33;17.30;;;;;;;24.27;100.00;-18396.88;5073653;28;20180;-56
2023/07/13 03:06:50;;;;;;;18.70;15.85;;;;;;;23.95;100.00;-18389.41;5073833;28;20185;-56
2023/07/13 03:09:17;;;;;;;16.50;15.02;;;;;;;24.10;100.00;-18392.94;5073795;28;20700;-57
2023/07/13 03:11:45;;;;;;;16.17;14.57;;;;;;;24.00;100.00;-18390.47;5073437;28;20300;-56
2023/07/13 03:14:11;;;;;;;20.27;14.75;;;;;;;24.18;100.00;-18394.72;5073390;28;20271;-57
2023/07/13 03:16:38;;;;;;;18.50;15.48;;;;;;;24.24;100.00;-18396.03;5073417;28;20189;-56
2023/07/13 03:19:05;;;;;;;24.50;15.65;;;;;;;24.28;100.00;-18396.97;5073140;28;20189;-56
2023/07/13 03:21:33;;;;;;;17.38;15.90;;;;;;;24.57;100.00;-18403.97;5073247;28;20204;-57
2023/07/13 03:24:00;;;;;;;17.13;15.55;;;;;;;24.92;100.00;-18412.03;5073108;28;20181;-57
2023/07/13 03:26:27;;;;;;;16.60;15.13;;;;;;;25.04;100.00;-18414.88;5073685;28;20199;-56
2023/07/13 03:28:54;;;;;;;17.63;15.77;;;;;;;25.27;100.00;-18420.31;5073172;28;20188;-59
2023/07/13 03:31:23;;;;;;;25.73;17.02;;;;;;;25.34;100.00;-18421.97;5073314;28;20578;-59
2023/07/13 03:33:50;;;;;;;31.10;17.55;;;;;;;25.39;100.00;-18423.03;5072996;28;20188;-58
2023/07/13 03:36:19;;;;;;;43.60;16.52;;;;;;;25.37;100.00;-18422.56;5073285;28;20631;-59
2023/07/13 03:38:49;;;;;;;47.03;18.77;;;;;;;25.34;100.00;-18421.84;5073073;28;20188;-59
2023/07/13 03:41:16;;;;;;;52.53;18.52;;;;;;;25.29;100.00;-18420.78;5072438;28;20189;-58
2023/07/13 03:43:43;;;;;;;36.80;17.30;;;;;;;25.37;100.00;-18422.56;5072768;28;20211;-59
2023/07/13 03:46:10;;;;;;;25.88;17.17;;;;;;;25.50;100.00;-18425.50;5072809;28;20307;-58
2023/07/13 03:48:39;;;;;;;20.15;16.33;;;;;;;25.47;100.00;-18425.03;5073133;28;20197;-60
2023/07/13 03:51:06;;;;;;;19.58;15.68;;;;;;;25.43;100.00;-18423.97;5072603;28;20304;-58
2023/07/13 03:53:33;;;;;;;21.80;15.50;;;;;;;25.48;100.00;-18425.28;5073123;28;20196;-59
2023/07/13 03:56:03;;;;;;;19.98;14.98;;;;;;;25.69;100.00;-18430.00;5072390;28;20188;-60
2023/07/13 03:58:34;;;;;;;18.73;16.80;;;;;;;25.72;100.00;-18430.84;5071243;28;20232;-59
2023/07/13 04:01:03;;;;;;;21.10;16.10;;;;;;;25.85;100.00;-18433.91;5072670;28;20555;-60
2023/07/13 04:03:32;;;;;;;16.38;14.88;;;;;;;25.86;100.00;-18434.16;5072443;28;20184;-58
2023/07/13 04:06:00;;;;;;;17.55;15.82;;;;;;;26.06;100.00;-18438.63;5072248;28;20250;-58
2023/07/13 04:08:28;;;;;;;16.30;14.90;;;;;;;26.16;100.00;-18441.00;5072550;28;20188;-59
2023/07/13 04:10:55;;;;;;;18.85;14.77;;;;;;;26.19;100.00;-18441.72;5072025;28;20201;-59
2023/07/13 04:13:24;;;;;;;16.52;15.20;;;;;;;26.31;100.00;-18442.63;5072499;28;20192;-59
2023/07/13 04:15:51;;;;;;;18.48;15.25;;;;;;;26.36;100.00;-18443.81;5072406;28;20643;-58
2023/07/13 04:18:19;;;;;;;15.23;13.98;;;;;;;26.39;100.00;-15510.50;5072105;28;20191;-58
2023/07/13 04:20:46;;;;;;;15.60;14.25;;;;;;;26.47;100.00;-15185.81;5072026;28;20184;-59
2023/07/13 04:23:13;;;;;;;21.73;14.88;;;;;;;26.62;100.00;-13556.81;5071973;28;20189;-59
2023/07/13 04:25:40;;;;;;;17.98;14.30;;;;;;;27.03;100.00;-8986.63;5071872;28;20180;-59
2023/07/13 04:28:07;;;;;;;17.45;14.15;;;;;;;27.27;100.00;-3420.69;5071776;28;20189;-59
2023/07/13 04:30:36;;;;;;;27.45;14.35;;;;;;;27.45;100.00;4129.75;5072112;28;20700;-59
2023/07/13 04:33:03;;;;;;;26.83;14.70;;;;;;;27.69;100.00;7093.19;5072205;28;20580;-59
2023/07/13 04:35:30;;;;;;;28.27;14.77;;;;;;;27.93;100.00;11709.31;5072278;28;20695;-59
2023/07/13 04:37:57;;;;;;;26.42;14.85;;;;;;;28.03;100.00;22610.16;5071772;28;20189;-59
2023/07/13 04:40:23;;;;;;;17.92;13.45;;;;;;;28.19;100.00;31562.84;5071977;28;20204;-59
2023/07/13 04:42:50;;;;;;;24.67;13.68;;;;;;;28.33;100.00;36552.22;5071924;28;20646;-59
2023/07/13 04:45:17;;;;;;;21.40;13.10;;;;;;;28.55;100.00;45554.94;5071726;28;20240;-59
2023/07/13 04:47:46;;;;;;;25.48;14.65;;;;;;;28.54;100.00;51893.25;5071625;28;20220;-59
2023/07/13 04:50:19;;;;;;;31.75;25.10;;;;;;;28.65;100.00;57586.38;5071919;28;20745;-58
2023/07/13 04:52:46;;;;;;;50.25;38.97;;;;;;;28.78;100.00;59942.16;5070840;28;20215;-60
2023/07/13 04:55:13;;;;;;;43.53;36.15;;;;;;;28.82;100.00;67993.63;5071508;28;20185;-62
2023/07/13 04:57:40;;;;;;;26.08;14.20;;;;;;;28.75;100.00;64965.91;5071604;28;20279;-60
2023/07/13 05:00:08;;;;;;;21.27;14.15;;;;;;;28.50;100.00;49887.00;5071783;28;20189;-60
2023/07/13 05:02:36;;;;;;;22.15;15.73;;;;;;;28.79;100.00;54589.06;5071425;28;20193;-59
2023/07/13 05:05:04;;;;;;;26.90;13.32;;;;;;;28.85;100.00;59279.53;5071722;28;20185;-60
2023/07/13 05:07:32;;;;;;;21.83;15.10;;;;;;;28.83;100.00;69674.34;5071720;28;20662;-62
2023/07/13 05:09:59;;;;;;;23.75;14.18;;;;;;;29.08;100.00;76429.53;5071716;28;20184;-63
2023/07/13 05:12:29;;;;;;;23.73;13.85;;;;;;;29.06;100.00;89244.56;5071422;28;20204;-63
2023/07/13 05:14:56;;;;;;;20.17;12.88;;;;;;;29.01;100.00;87885.75;5071763;28;20195;-64
2023/07/13 05:17:23;;;;;;;26.73;14.23;;;;;;;29.09;100.00;99740.84;5071032;28;20192;-64
2023/07/13 05:19:50;;;;;;;36.47;13.80;;;;;;;29.44;100.00;127720.03;5070137;28;20199;-64
2023/07/13 05:22:18;;;;;;;28.20;13.30;;;;;;;29.55;100.00;153476.75;5071639;28;20184;-64
2023/07/13 05:24:45;;;;;;;13.30;12.07;;;;;;;29.72;100.00;153521.59;5071218;28;20212;-63
2023/07/13 05:27:12;;;;;;;25.00;11.57;;;;;;;29.88;100.00;153561.34;5071325;28;20271;-65
2023/07/13 05:29:39;;;;;;;20.30;11.38;;;;;;;30.10;100.00;153617.72;5071354;28;20193;-62
2023/07/13 05:32:06;;;;;;;21.30;11.95;;;;;;;30.15;100.00;153630.56;5071482;28;20236;-62
2023/07/13 05:34:33;;;;;;;33.38;13.13;;;;;;;30.25;100.00;153654.94;5070962;28;20196;-64
2023/07/13 05:37:00;;;;;;;11.50;10.55;;;;;;;30.39;100.00;153690.78;5071242;28;20184;-64
2023/07/13 05:39:29;;;;;;;18.27;12.18;;;;;;;30.61;100.00;153747.25;5071299;28;20216;-64
2023/07/13 05:41:55;;;;;;;37.88;13.00;;;;;;;30.82;100.00;153799.78;5071759;28;20188;-65
2023/07/13 05:44:22;;;;;;;23.27;12.30;;;;;;;31.06;100.00;153861.44;5071300;28;20221;-64
2023/07/13 05:46:49;;;;;;;20.13;11.52;;;;;;;31.31;100.00;153924.25;5071681;28;20188;-66
2023/07/13 05:49:16;;;;;;;18.35;11.52;;;;;;;31.13;100.00;153879.34;5071256;28;20192;-65
2023/07/13 05:51:43;;;;;;;20.25;11.60;;;;;;;31.24;100.00;153907.56;5071108;28;20208;-64
2023/07/13 05:54:10;;;;;;;12.70;11.40;;;;;;;31.42;100.00;153951.16;5071493;28;20591;-67
2023/07/13 05:56:38;;;;;;;31.70;12.80;;;;;;;31.38;100.00;153940.91;5071366;28;20643;-67
2023/07/13 05:59:05;;;;;;;15.07;11.50;;;;;;;31.47;100.00;153964.00;5071127;28;20220;-64
2023/07/13 06:01:32;;;;;;;13.20;11.85;;;;;;;31.53;100.00;153979.41;5071123;28;20212;-67
2023/07/13 06:03:59;;;;;;;12.80;10.48;;;;;;;31.80;100.00;154048.69;5073411;28;20185;-66
2023/07/13 06:06:28;;;;;;;11.18;10.18;;;;;;;32.30;100.00;154174.47;5074704;28;20185;-64
2023/07/13 06:08:55;;;;;;;20.40;11.55;;;;;;;32.56;100.00;154242.50;5074734;28;20279;-64
2023/07/13 06:11:24;;;;;;;14.57;11.20;;;;;;;32.46;100.00;154215.56;5074400;28;20344;-64
2023/07/13 06:13:53;;;;;;;26.67;11.07;;;;;;;32.55;100.00;154238.63;5074683;28;20185;-63
2023/07/13 06:16:20;;;;;;;20.77;10.45;;;;;;;32.55;100.00;154238.63;5074179;28;20191;-61
2023/07/13 06:18:47;;;;;;;17.52;11.10;;;;;;;32.70;100.00;154277.19;5074233;28;20184;-63
2023/07/13 06:21:16;;;;;;;17.48;10.52;;;;;;;33.32;100.00;154433.84;5073941;28;20216;-60
2023/07/13 06:23:44;;;;;;;15.73;11.20;;;;;;;33.74;100.00;154541.75;5073747;28;20196;-61
2023/07/13 06:26:11;;;;;;;21.85;15.05;;;;;;;33.96;100.00;154598.28;5074275;28;20181;-62
2023/07/13 06:28:39;;;;;;;16.30;11.77;;;;;;;34.21;100.00;154659.97;5074382;28;20642;-59
2023/07/13 06:31:09;;;;;;;14.73;11.02;;;;;;;34.42;100.00;154713.91;5072337;28;20277;-61
2023/07/13 06:33:41;;;;;;;16.98;12.23;;;;;;;34.77;100.00;154803.91;5073705;28;20185;-62
2023/07/13 06:36:09;;;;;;;21.77;10.95;;;;;;;35.42;100.00;154967.19;5073691;28;20187;-59
2023/07/13 06:38:38;;;;;;;17.02;11.77;;;;;;;35.48;100.00;154982.59;5074328;28;20382;-62
2023/07/13 06:41:07;;;;;;;31.73;12.23;;;;;;;35.43;100.00;154971.06;5073874;28;20259;-60
2023/07/13 06:43:33;;;;;;;14.73;12.30;;;;;;;35.32;100.00;154942.75;5073834;28;20185;-61
2023/07/13 06:46:00;;;;;;;15.77;11.65;;;;;;;35.43;100.00;154969.78;5073495;28;20236;-61
2023/07/13 06:48:29;;;;;;;23.10;11.80;;;;;;;35.96;100.00;155104.78;5073803;28;20270;-61
2023/07/13 06:50:56;;;;;;;30.85;12.15;;;;;;;36.13;100.00;155148.56;5073849;28;20181;-59
2023/07/13 06:53:23;;;;;;;18.52;11.80;;;;;;;36.42;100.00;155221.84;5073343;28;20215;-61
2023/07/13 06:55:52;;;;;;;18.67;12.30;;;;;;;36.28;100.00;155187.16;5073659;28;20555;-61
2023/07/13 06:58:20;;;;;;;31.65;12.15;;;;;;;36.52;100.00;155247.59;5073298;28;20188;-60
2023/07/13 07:00:52;;;;;;;23.15;13.43;;;;;;;36.25;100.00;155179.41;5073186;28;20197;-64
2023/07/13 07:03:19;;;;;;;13.25;11.90;;;;;;;35.76;100.00;155053.38;5073222;28;20643;-61
2023/07/13 07:05:48;;;;;;;15.88;12.23;;;;;;;35.76;100.00;155053.38;5073598;28;20558;-64
2023/07/13 07:08:15;;;;;;;17.50;12.07;;;;;;;35.21;100.00;154914.50;5073457;28;20285;-60
2023/07/13 07:10:43;;;;;;;18.20;12.05;;;;;;;34.88;100.00;154829.63;5073724;28;20188;-61
2023/07/13 07:13:10;;;;;;;12.55;11.55;;;;;;;34.62;100.00;154764.06;5073428;28;20224;-62
2023/07/13 07:15:39;;;;;;;15.30;12.18;;;;;;;34.72;100.00;154791.06;5072277;28;20185;-62
2023/07/13 07:18:06;;;;;;;17.33;11.50;;;;;;;34.96;100.00;154850.19;5073274;28;20193;-62
2023/07/13 07:20:33;;;;;;;18.95;11.93;;;;;;;35.19;100.00;154909.34;5073055;28;20272;-60
2023/07/13 07:23:02;;;;;;;22.92;12.15;;;;;;;34.99;100.00;154857.91;5072673;28;20189;-60
2023/07/13 07:25:31;;;;;;;19.90;13.20;;;;;;;35.11;100.00;154890.03;5073206;28;20185;-61
2023/07/13 07:28:00;;;;;;;24.10;12.95;;;;;;;34.89;100.00;154833.47;5073230;28;20512;-62
2023/07/13 07:30:27;;;;;;;16.60;12.27;;;;;;;34.77;100.00;154803.91;5073098;28;20189;-60
2023/07/13 07:32:54;;;;;;;14.30;13.10;;;;;;;34.73;100.00;154793.66;5072824;28;20683;-59
2023/07/13 07:35:22;;;;;;;14.07;12.65;;;;;;;34.64;100.00;154769.16;5073575;28;20200;-62
2023/07/13 07:37:49;;;;;;;13.70;11.63;;;;;;;34.71;100.00;154787.25;5073407;28;20188;-63
2023/07/13 07:40:18;;;;;;;17.58;12.27;;;;;;;34.84;100.00;154821.91;5073191;28;20261;-62
2023/07/13 07:42:44;;;;;;;17.45;13.18;;;;;;;35.14;100.00;154896.44;5072766;28;20211;-61
2023/07/13 07:45:12;;;;;;;22.50;14.05;;;;;;;35.03;100.00;154869.47;5073209;28;20236;-61
2023/07/13 07:47:39;;;;;;;12.93;11.80;;;;;;;35.11;100.00;154890.03;5073374;28;20185;-62
2023/07/13 07:50:06;;;;;;;24.52;12.93;;;;;;;35.17;100.00;154904.22;5072728;28;20283;-61
2023/07/13 07:52:33;;;;;;;20.60;13.00;;;;;;;35.09;100.00;154883.63;5072550;28;20209;-62
2023/07/13 07:55:00;;;;;;;29.40;15.05;;;;;;;34.87;100.00;154828.34;5071756;28;20181;-62
2023/07/13 07:57:28;;;;;;;14.52;13.05;;;;;;;34.98;100.00;154855.31;5072401;28;20189;-62
2023/07/13 07:59:55;;;;;;;17.65;12.15;;;;;;;34.98;100.00;154856.59;5072689;28;20223;-61
2023/07/13 08:02:22;;;;;;;14.18;12.82;;;;;;;35.06;100.00;154875.88;5072375;28;20176;-61
2023/07/13 08:04:49;;;;;;;16.77;12.23;;;;;;;34.78;100.00;154806.50;5072101;28;20196;-60
2023/07/13 08:07:16;;;;;;;13.50;12.30;;;;;;;34.72;100.00;154789.78;5072391;28;20180;-63
2023/07/13 08:09:43;;;;;;;13.55;12.48;;;;;;;34.82;100.00;154816.78;5072607;28;20192;-62
2023/07/13 08:12:10;;;;;;;12.57;11.40;;;;;;;34.89;100.00;154833.47;5073014;28;20213;-63
2023/07/13 08:14:39;;;;;;;12.98;11.75;;;;;;;35.38;100.00;154958.22;5072594;28;20193;-62
2023/07/13 08:17:06;;;;;;;13.18;11.93;;;;;;;35.73;100.00;155046.97;5072477;28;20265;-62
2023/07/13 08:19:33;;;;;;;13.55;12.32;;;;;;;35.85;100.00;155076.53;5072051;28;20280;-60
2023/07/13 08:22:00;;;;;;;12.15;11.45;;;;;;;36.06;100.00;155130.53;5072692;28;20188;-61
2023/07/13 08:24:27;;;;;;;13.52;12.05;;;;;;;36.11;100.00;155144.69;5070894;28;20189;-62
2023/07/13 08:26:53;;;;;;;12.38;11.40;;;;;;;35.60;100.00;155014.78;5072040;28;20204;-62
2023/07/13 08:29:21;;;;;;;12.20;11.50;;;;;;;35.27;100.00;154929.91;5072257;28;20188;-60
2023/07/13 08:31:50;;;;;;;12.18;11.27;;;;;;;35.05;100.00;154873.34;5072238;28;20192;-63
2023/07/13 08:34:17;;;;;;;12.05;11.05;;;;;;;34.67;100.00;154776.97;5072113;28;20185;-61
2023/07/13 08:36:43;;;;;;;13.27;11.48;;;;;;;34.69;100.00;154783.38;5072172;28;20279;-61
2023/07/13 08:39:10;;;;;;;14.10;11.63;;;;;;;34.67;100.00;154776.97;5072082;28;20192;-61
2023/07/13 08:41:39;;;;;;;12.45;11.35;;;;;;;34.66;100.00;154775.66;5071739;28;20177;-62
2023/07/13 08:44:16;;;;;;;12.93;11.50;;;;;;;34.65;100.00;154771.75;5071558;28;20192;-61
2023/07/13 08:46:48;;;;;;;12.13;11.32;;;;;;;34.52;100.00;154739.63;5071230;28;20606;-63
2023/07/13 08:49:23;;;;;;;12.45;11.55;;;;;;;34.78;100.00;154806.50;5072085;28;20212;-61
2023/07/13 08:51:55;;;;;;;12.30;11.10;;;;;;;34.71;100.00;154788.47;5070316;28;20196;-61
2023/07/13 08:54:26;;;;;;;12.57;11.57;;;;;;;34.62;100.00;154765.34;5071376;28;20189;-63
2023/07/13 08:56:56;;;;;;;12.13;11.43;;;;;;;34.13;100.00;154640.66;5070510;28;20184;-61
2023/07/13 08:59:27;;;;;;;12.20;11.40;;;;;;;34.41;100.00;154711.38;5071119;28;20181;-62
2023/07/13 09:02:21;;;;;;;12.65;11.60;;;;;;;34.40;100.00;154710.09;5071817;28;20509;-60
2023/07/13 09:04:55;;;;;;;13.98;12.85;;;;;;;33.71;100.00;154534.06;5062079;28;20501;-60
2023/07/13 09:07:35;;;;;;;13.32;12.57;;;;;;;33.73;100.00;154537.94;5071556;28;20657;-61
2023/07/13 09:10:15;;;;;;;14.98;13.57;;;;;;;33.39;100.00;154453.13;5071521;28;20200;-61
2023/07/13 09:12:52;;;;;;;13.15;12.23;;;;;;;33.37;100.00;154446.69;5071225;28;20678;-60
2023/07/13 09:15:32;;;;;;;13.50;12.23;;;;;;;33.21;100.00;154405.59;5071351;28;20196;-62
2023/07/13 09:18:05;;;;;;;14.68;13.70;;;;;;;33.10;100.00;154377.34;5073227;28;20187;-58
2023/07/13 09:20:37;;;;;;;13.85;12.98;;;;;;;32.90;100.00;154327.25;5075611;28;20661;-61
2023/07/13 09:23:08;;;;;;;13.00;12.35;;;;;;;32.74;100.00;154287.47;5074067;28;20663;-62
2023/07/13 09:25:37;;;;;;;13.55;12.20;;;;;;;32.70;100.00;154275.91;5072614;28;20220;-63
2023/07/13 09:28:12;;;;;;;15.65;13.02;;;;;;;32.78;100.00;154296.44;5072265;28;20194;-62
2023/07/13 09:30:51;;;;;;;13.60;13.00;;;;;;;32.68;100.00;154272.03;5071405;28;20604;-63
2023/07/13 09:33:21;;;;;;;13.27;12.48;;;;;;;32.43;100.00;154207.81;5073812;28;20208;-63
2023/07/13 09:35:49;;;;;;;13.90;12.52;;;;;;;32.21;100.00;154152.66;5072399;28;20184;-63
2023/07/13 09:38:19;;;;;;;13.95;12.55;;;;;;;32.44;100.00;154210.41;5073486;28;20704;-63
2023/07/13 09:41:00;;;;;;;13.18;12.35;;;;;;;31.99;100.00;154097.47;5076068;28;20185;-62
2023/07/13 09:43:28;;;;;;;13.23;12.45;;;;;;;32.39;100.00;154197.56;5075995;28;20563;-61
2023/07/13 09:45:56;;;;;;;12.57;11.95;;;;;;;32.62;100.00;154256.66;5076019;28;20605;-61
2023/07/13 09:48:24;;;;;;;12.88;12.30;;;;;;;32.63;100.00;154259.25;5075975;28;20183;-62
2023/07/13 09:50:55;;;;;;;14.70;13.57;;;;;;;33.07;100.00;154372.19;5077880;28;20185;-62
2023/07/13 09:53:23;;;;;;;14.05;12.80;;;;;;;33.59;100.00;154503.19;5076025;28;20215;-63
2023/07/13 09:55:50;;;;;;;14.88;13.02;;;;;;;33.75;100.00;154543.03;5075760;28;20192;-63
2023/07/13 09:58:19;;;;;;;17.67;11.90;;;;;;;33.36;100.00;154444.09;5075673;28;20184;-61
2023/07/13 10:00:58;;;;;;;14.65;13.05;;;;;;;33.25;100.00;154415.88;5075451;28;20214;-62
2023/07/13 10:03:28;;;;;;;13.48;12.23;;;;;;;33.14;100.00;154387.66;5075650;28;20185;-62
2023/07/13 10:06:07;;;;;;;12.23;11.65;;;;;;;32.63;100.00;154259.25;5075668;28;20199;-63
2023/07/13 10:08:39;;;;;;;12.57;11.77;;;;;;;31.98;100.00;154094.91;5076177;28;20180;-61
2023/07/13 10:11:11;;;;;;;12.60;11.63;;;;;;;32.24;100.00;154159.09;5075238;28;20532;-61
2023/07/13 10:13:44;;;;;;;12.75;11.80;;;;;;;31.87;100.00;154066.63;5073821;28;20229;-61
2023/07/13 10:16:11;;;;;;;12.27;11.45;;;;;;;31.73;100.00;154032.03;5074769;28;20653;-58
2023/07/13 10:18:45;;;;;;;13.02;11.98;;;;;;;31.46;100.00;153961.41;5074706;28;20639;-59
2023/07/13 10:21:21;;;;;;;12.38;11.55;;;;;;;31.47;100.00;153964.00;5075133;28;20267;-60
2023/07/13 10:23:59;;;;;;;14.63;12.27;;;;;;;31.97;100.00;154091.03;5074506;28;20225;-59
2023/07/13 10:26:35;;;;;;;13.80;12.90;;;;;;;32.04;100.00;154109.03;5074376;28;20589;-58
2023/07/13 10:29:08;;;;;;;13.43;12.70;;;;;;;31.94;100.00;154084.63;5074616;28;20409;-59
2023/07/13 10:31:37;;;;;;;13.57;12.65;;;;;;;31.95;100.00;154087.22;5074427;28;20555;-61
2023/07/13 10:34:05;;;;;;;13.60;12.35;;;;;;;31.99;100.00;154097.47;5073903;28;20252;-62
2023/07/13 10:36:39;;;;;;;13.05;12.35;;;;;;;31.91;100.00;154076.91;5074363;28;20189;-59
2023/07/13 10:39:06;;;;;;;13.52;12.50;;;;;;;31.88;100.00;154067.91;5074204;28;20188;-58
2023/07/13 10:41:40;;;;;;;12.52;11.93;;;;;;;32.15;100.00;154138.56;5074645;28;20696;-57
2023/07/13 10:44:17;;;;;;;13.02;12.32;;;;;;;32.04;100.00;154109.03;5074054;28;20252;-63
2023/07/13 10:46:44;;;;;;;12.88;12.07;;;;;;;32.10;100.00;154125.72;5074416;28;20315;-62
2023/07/13 10:49:13;;;;;;;13.70;12.70;;;;;;;32.06;100.00;154115.41;5074326;28;20186;-62
2023/07/13 10:51:41;;;;;;;12.20;11.70;;;;;;;31.77;100.00;154041.00;5073648;28;20189;-60
2023/07/13 10:54:25;;;;;;;12.63;11.82;;;;;;;31.65;100.00;154010.22;5074816;28;20667;-62
2023/07/13 10:57:08;;;;;;;12.88;12.38;;;;;;;31.42;100.00;153952.44;5074852;28;20272;-60
2023/07/13 10:59:35;;;;;;;14.30;12.88;;;;;;;31.56;100.00;153988.44;5075430;28;20246;-59
2023/07/13 11:02:13;;;;;;;12.73;12.02;;;;;;;31.20;100.00;153896.00;5075058;28;20277;-62
2023/07/13 11:04:43;;;;;;;13.10;12.40;;;;;;;31.38;100.00;153940.91;5074601;28;20203;-62
2023/07/13 11:07:21;;;;;;;12.43;11.73;;;;;;;31.60;100.00;153998.69;5074763;28;20264;-63
2023/07/13 11:09:52;;;;;;;13.45;12.48;;;;;;;31.59;100.00;153996.09;5074478;28;20188;-64